createdAt,value
2022-11-12T00:01:05.428Z,95.78
2022-11-12T00:03:34.408Z,95.68
2022-11-12T00:06:02.030Z,95.86
2022-11-12T00:08:30.054Z,95.34
2022-11-12T00:10:58.077Z,95.78
2022-11-12T00:13:25.688Z,95.77
2022-11-12T00:15:53.319Z,95.93
2022-11-12T00:18:21.219Z,95.98
2022-11-12T00:20:50.161Z,96.01
2022-11-12T00:23:17.777Z,96.13
2022-11-12T00:25:45.596Z,96.05
2022-11-12T00:28:13.188Z,96.26
2022-11-12T00:30:42.241Z,96.50
2022-11-12T00:33:09.853Z,96.05
2022-11-12T00:35:37.674Z,96.28
2022-11-12T00:38:06.730Z,96.02
2022-11-12T00:40:34.761Z,96.10
2022-11-12T00:43:02.333Z,96.02
2022-11-12T00:45:30.925Z,96.20
2022-11-12T00:47:58.480Z,95.86
2022-11-12T00:50:26.103Z,95.40
2022-11-12T00:52:54.330Z,95.17
2022-11-12T00:55:23.203Z,95.82
2022-11-12T00:57:51.845Z,95.69
2022-11-12T01:00:20.460Z,96.14
2022-11-12T01:02:51.281Z,95.74
2022-11-12T01:05:20.067Z,95.91
2022-11-12T01:07:53.164Z,96.38
2022-11-12T01:10:24.228Z,96.58
2022-11-12T01:12:52.016Z,96.71
2022-11-12T01:15:19.876Z,96.14
2022-11-12T01:17:47.408Z,96.44
2022-11-12T01:20:15.215Z,97.21
2022-11-12T01:22:42.987Z,96.84
2022-11-12T01:25:10.613Z,96.98
2022-11-12T01:27:39.584Z,97.60
2022-11-12T01:30:08.167Z,97.67
2022-11-12T01:32:37.745Z,97.99
2022-11-12T01:35:06.605Z,97.59
2022-11-12T01:37:34.164Z,97.38
2022-11-12T01:40:01.725Z,96.97
2022-11-12T01:42:30.839Z,97.34
2022-11-12T01:44:59.717Z,96.97
2022-11-12T01:47:31.812Z,96.65
2022-11-12T01:50:01.608Z,96.44
2022-11-12T01:52:34.029Z,96.29
2022-11-12T01:55:06.461Z,96.22
2022-11-12T01:57:39.137Z,96.13
2022-11-12T02:00:14.595Z,95.51
2022-11-12T02:02:47.278Z,95.90
2022-11-12T02:05:17.466Z,95.55
2022-11-12T02:07:46.930Z,95.33
2022-11-12T02:10:16.413Z,95.55
2022-11-12T02:13:02.540Z,95.30
2022-11-12T02:15:32.101Z,95.96
2022-11-12T02:17:59.677Z,96.63
2022-11-12T02:20:27.340Z,96.25
2022-11-12T02:22:56.800Z,96.69
2022-11-12T02:25:27.492Z,96.65
2022-11-12T02:27:57.049Z,97.46
2022-11-12T02:30:33.695Z,97.68
2022-11-12T02:33:01.578Z,97.17
2022-11-12T02:35:29.147Z,97.71
2022-11-12T02:37:58.333Z,97.89
2022-11-12T02:40:26.217Z,97.81
2022-11-12T02:42:53.793Z,97.53
2022-11-12T02:45:21.665Z,98.10
2022-11-12T02:47:49.514Z,98.13
2022-11-12T02:50:17.489Z,97.93
2022-11-12T02:52:46.111Z,98.20
2022-11-12T02:55:15.280Z,98.41
2022-11-12T02:57:42.955Z,98.31
2022-11-12T03:00:13.295Z,98.35
2022-11-12T03:02:43.073Z,97.92
2022-11-12T03:05:11.839Z,98.59
2022-11-12T03:07:40.036Z,98.14
2022-11-12T03:10:08.087Z,98.25
2022-11-12T03:12:37.265Z,98.26
2022-11-12T03:15:05.651Z,98.46
2022-11-12T03:17:35.290Z,98.42
2022-11-12T03:20:02.961Z,98.43
2022-11-12T03:22:30.790Z,98.24
2022-11-12T03:24:58.369Z,98.08
2022-11-12T03:27:25.936Z,98.20
2022-11-12T03:29:54.864Z,98.17
2022-11-12T03:32:22.600Z,98.13
2022-11-12T03:34:55.167Z,98.57
2022-11-12T03:37:23.193Z,98.60
2022-11-12T03:39:50.757Z,98.24
2022-11-12T03:42:18.392Z,98.43
2022-11-12T03:44:46.176Z,98.13
2022-11-12T03:47:15.070Z,98.25
2022-11-12T03:49:42.656Z,98.27
2022-11-12T03:52:10.224Z,98.29
2022-11-12T03:54:37.766Z,98.33
2022-11-12T03:57:05.428Z,97.93
2022-11-12T03:59:33.179Z,98.50
2022-11-12T04:02:00.754Z,98.74
2022-11-12T04:04:49.994Z,98.83
2022-11-12T04:07:35.341Z,98.55
2022-11-12T04:10:02.942Z,98.90
2022-11-12T04:12:48.353Z,99.13
2022-11-12T04:15:16.159Z,99.60
2022-11-12T04:18:01.255Z,99.36
2022-11-12T04:21:02.314Z,99.05
2022-11-12T04:23:30.885Z,99.08
2022-11-12T04:26:16.137Z,98.80
2022-11-12T04:29:03.921Z,99.05
2022-11-12T04:31:30.605Z,98.45
2022-11-12T04:34:18.536Z,98.49
2022-11-12T04:36:47.765Z,97.94
2022-11-12T04:39:15.429Z,98.03
2022-11-12T04:42:00.773Z,97.90
2022-11-12T04:44:46.147Z,98.09
2022-11-12T04:47:14.749Z,98.03
2022-11-12T04:49:43.393Z,97.77
2022-11-12T04:52:12.461Z,98.24
2022-11-12T04:54:40.433Z,97.62
2022-11-12T04:57:08.049Z,97.86
2022-11-12T04:59:35.745Z,98.15
2022-11-12T05:02:03.312Z,97.81
2022-11-12T05:04:33.059Z,98.12
2022-11-12T05:07:01.097Z,98.10
2022-11-12T05:09:30.986Z,97.82
2022-11-12T05:11:58.901Z,97.93
2022-11-12T05:14:26.546Z,97.89
2022-11-12T05:16:54.462Z,97.80
2022-11-12T05:19:22.080Z,97.20
2022-11-12T05:22:13.904Z,98.05
2022-11-12T05:24:56.217Z,97.29
2022-11-12T05:27:23.777Z,96.18
2022-11-12T05:29:51.512Z,96.12
2022-11-12T05:32:19.343Z,95.98
2022-11-12T05:34:47.054Z,95.80
2022-11-12T05:37:15.292Z,96.80
2022-11-12T05:39:43.045Z,97.36
2022-11-12T05:42:13.711Z,96.54
2022-11-12T05:44:42.037Z,95.49
2022-11-12T05:47:09.853Z,96.42
2022-11-12T05:49:37.703Z,96.65
2022-11-12T05:52:05.607Z,97.14
2022-11-12T05:54:33.226Z,96.27
2022-11-12T05:57:00.828Z,96.19
2022-11-12T05:59:29.891Z,95.34
2022-11-12T06:01:57.470Z,94.56
2022-11-12T06:04:26.154Z,94.52
2022-11-12T06:06:53.724Z,95.14
2022-11-12T06:09:21.332Z,95.50
2022-11-12T06:11:48.932Z,95.24
2022-11-12T06:14:16.608Z,96.92
2022-11-12T06:16:45.521Z,96.90
2022-11-12T06:19:13.112Z,97.49
2022-11-12T06:21:40.752Z,97.17
2022-11-12T06:24:09.125Z,96.51
2022-11-12T06:26:38.124Z,94.25
2022-11-12T06:29:05.782Z,93.38
2022-11-12T06:31:33.385Z,94.54
2022-11-12T06:34:03.175Z,95.22
2022-11-12T06:36:30.837Z,94.24
2022-11-12T06:38:58.434Z,92.95
2022-11-12T06:41:26.003Z,93.74
2022-11-12T06:43:53.561Z,93.92
2022-11-12T06:46:21.172Z,95.61
2022-11-12T06:48:48.800Z,94.60
2022-11-12T06:51:20.563Z,93.01
2022-11-12T06:53:48.569Z,92.73
2022-11-12T06:56:16.846Z,94.27
2022-11-12T06:58:44.721Z,94.13
2022-11-12T07:01:14.474Z,94.23
2022-11-12T07:03:43.964Z,95.60
2022-11-12T07:06:14.429Z,95.10
2022-11-12T07:08:43.515Z,95.62
2022-11-12T07:11:11.512Z,94.42
2022-11-12T07:13:39.294Z,95.17
2022-11-12T07:16:08.756Z,95.85
2022-11-12T07:18:36.567Z,96.53
2022-11-12T07:21:06.720Z,96.15
2022-11-12T07:23:36.299Z,94.62
2022-11-12T07:26:07.165Z,95.79
2022-11-12T07:28:35.137Z,94.95
2022-11-12T07:31:04.586Z,94.38
2022-11-12T07:33:33.179Z,95.12
2022-11-12T07:36:01.658Z,94.19
2022-11-12T07:38:30.536Z,94.95
2022-11-12T07:41:02.299Z,96.01
2022-11-12T07:43:31.968Z,95.50
2022-11-12T07:46:00.201Z,95.34
2022-11-12T07:48:28.090Z,96.51
2022-11-12T07:51:01.649Z,97.24
2022-11-12T07:53:29.369Z,96.41
2022-11-12T07:55:58.017Z,95.61
2022-11-12T07:58:26.650Z,94.85
2022-11-12T08:00:55.838Z,94.02
2022-11-12T08:03:24.129Z,94.60
2022-11-12T08:05:51.818Z,93.10
2022-11-12T08:08:19.379Z,93.39
2022-11-12T08:10:46.920Z,91.59
2022-11-12T08:13:14.789Z,92.64
2022-11-12T08:15:42.413Z,92.25
2022-11-12T08:18:11.488Z,91.09
2022-11-12T08:20:39.025Z,91.42
2022-11-12T08:23:06.621Z,92.14
2022-11-12T08:25:34.209Z,91.85
2022-11-12T08:28:01.892Z,91.66
2022-11-12T08:30:31.069Z,91.09
2022-11-12T08:32:59.671Z,92.29
2022-11-12T08:35:29.398Z,92.52
2022-11-12T08:38:00.366Z,91.88
2022-11-12T08:40:28.901Z,91.25
2022-11-12T08:43:00.396Z,92.29
2022-11-12T08:45:29.402Z,91.94
2022-11-12T08:48:00.221Z,93.59
2022-11-12T08:50:29.942Z,92.10
2022-11-12T08:53:00.753Z,93.26
2022-11-12T08:55:28.385Z,92.43
2022-11-12T08:57:56.123Z,93.69
2022-11-12T09:00:24.088Z,95.00
2022-11-12T09:02:51.900Z,95.03
2022-11-12T09:05:19.472Z,95.14
2022-11-12T09:07:50.399Z,94.26
2022-11-12T09:10:18.888Z,92.90
2022-11-12T09:12:52.685Z,93.47
2022-11-12T09:15:37.064Z,92.63
2022-11-12T09:18:08.395Z,92.91
2022-11-12T09:20:35.996Z,93.34
2022-11-12T09:23:07.155Z,93.03
2022-11-12T09:25:34.954Z,93.79
2022-11-12T09:28:08.209Z,93.42
2022-11-12T09:30:36.086Z,94.51
2022-11-12T09:33:03.713Z,94.00
2022-11-12T09:35:31.474Z,91.57
2022-11-12T09:38:00.930Z,93.38
2022-11-12T09:40:41.616Z,93.78
2022-11-12T09:43:20.202Z,93.54
2022-11-12T09:46:00.275Z,93.28
2022-11-12T09:48:40.887Z,93.82
2022-11-12T09:51:14.435Z,93.43
2022-11-12T09:53:49.898Z,93.67
2022-11-12T09:56:21.832Z,93.38
2022-11-12T09:58:49.639Z,93.09
2022-11-12T10:01:20.706Z,92.35
2022-11-12T10:03:57.213Z,92.10
2022-11-12T10:06:28.939Z,93.17
2022-11-12T10:09:02.080Z,92.28
2022-11-12T10:12:15.388Z,91.35
2022-11-12T10:15:20.515Z,90.83
2022-11-12T10:17:55.330Z,91.11
2022-11-12T10:20:27.090Z,91.90
2022-11-12T10:23:07.575Z,90.37
2022-11-12T10:25:36.696Z,90.84
2022-11-12T10:28:17.703Z,90.70
2022-11-12T10:30:45.825Z,90.60
2022-11-12T10:33:15.273Z,89.25
2022-11-12T10:35:42.835Z,89.64
2022-11-12T10:38:16.706Z,88.42
2022-11-12T10:40:44.575Z,89.78
2022-11-12T10:43:24.836Z,89.83
2022-11-12T10:45:52.744Z,91.17
2022-11-12T10:48:27.469Z,91.91
2022-11-12T10:50:55.765Z,90.67
2022-11-12T10:53:35.186Z,89.67
2022-11-12T10:56:05.388Z,90.22
2022-11-12T10:58:35.737Z,89.20
2022-11-12T11:01:05.168Z,88.32
2022-11-12T11:03:35.639Z,88.21
2022-11-12T11:06:06.211Z,86.79
2022-11-12T11:08:37.822Z,86.76
2022-11-12T11:11:18.362Z,86.62
2022-11-12T11:13:51.441Z,85.50
2022-11-12T11:16:24.751Z,86.86
2022-11-12T11:18:56.647Z,87.16
2022-11-12T11:21:51.706Z,86.11
2022-11-12T11:24:30.776Z,87.77
2022-11-12T11:27:04.658Z,86.14
2022-11-12T11:29:48.066Z,86.56
2022-11-12T11:32:36.060Z,90.05
2022-11-12T11:35:14.952Z,89.22
2022-11-12T11:37:58.455Z,86.82
2022-11-12T11:40:31.201Z,86.68
2022-11-12T11:43:23.580Z,87.93
2022-11-12T11:46:11.693Z,85.90
2022-11-12T11:48:51.806Z,88.25
2022-11-12T11:51:36.455Z,87.63
2022-11-12T11:54:19.257Z,86.66
2022-11-12T11:56:49.954Z,86.75
2022-11-12T11:59:35.730Z,88.45
2022-11-12T12:02:29.036Z,88.23
2022-11-12T12:05:08.958Z,87.71
2022-11-12T12:07:43.500Z,88.48
2022-11-12T12:10:21.851Z,87.85
2022-11-12T12:13:00.915Z,86.47
2022-11-12T12:15:48.543Z,88.26
2022-11-12T12:18:30.677Z,88.13
2022-11-12T12:21:07.184Z,87.99
2022-11-12T12:23:38.739Z,89.13
2022-11-12T12:26:13.408Z,88.31
2022-11-12T12:28:46.281Z,87.96
2022-11-12T12:31:19.368Z,89.54
2022-11-12T12:33:53.889Z,88.20
2022-11-12T12:36:26.608Z,88.06
2022-11-12T12:39:04.960Z,87.41
2022-11-12T12:41:40.575Z,87.29
2022-11-12T12:44:11.353Z,86.94
2022-11-12T12:46:43.862Z,87.12
2022-11-12T12:49:17.823Z,87.64
2022-11-12T12:51:45.773Z,88.53
2022-11-12T12:54:49.850Z,86.18
2022-11-12T12:57:32.578Z,86.82
2022-11-12T13:00:32.925Z,86.25
2022-11-12T13:03:00.621Z,84.69
2022-11-12T13:05:32.196Z,84.59
2022-11-12T13:08:07.110Z,85.71
2022-11-12T13:10:54.393Z,85.41
2022-11-12T13:13:32.750Z,82.14
2022-11-12T13:16:02.253Z,83.60
2022-11-12T13:18:59.098Z,86.46
2022-11-12T13:21:28.555Z,87.45
2022-11-12T13:24:07.881Z,87.42
2022-11-12T13:26:56.737Z,84.46
2022-11-12T13:29:47.042Z,86.17
2022-11-12T13:32:38.008Z,85.96
2022-11-12T13:35:36.432Z,85.03
2022-11-12T13:38:13.100Z,85.36
2022-11-12T13:40:44.587Z,86.15
2022-11-12T13:43:19.420Z,87.01
2022-11-12T13:45:51.152Z,86.82
2022-11-12T13:48:25.999Z,84.58
2022-11-12T13:50:56.597Z,86.16
2022-11-12T13:53:28.267Z,85.76
2022-11-12T13:55:56.782Z,85.43
2022-11-12T13:58:30.343Z,85.51
2022-11-12T14:00:59.976Z,88.50
2022-11-12T14:03:31.354Z,86.50
2022-11-12T14:06:06.166Z,85.37
2022-11-12T14:09:07.174Z,87.75
2022-11-12T14:11:55.720Z,86.88
2022-11-12T14:14:35.621Z,86.19
2022-11-12T14:17:22.030Z,86.29
2022-11-12T14:20:04.446Z,86.48
2022-11-12T14:22:40.041Z,86.52
2022-11-12T14:25:18.360Z,85.07
2022-11-12T14:27:46.541Z,84.02
2022-11-12T14:30:20.757Z,83.74
2022-11-12T14:32:51.018Z,84.76
2022-11-12T14:35:35.216Z,84.27
2022-11-12T14:38:13.500Z,84.32
2022-11-12T14:40:49.181Z,84.45
2022-11-12T14:43:27.355Z,85.70
2022-11-12T14:45:56.864Z,87.46
2022-11-12T14:48:24.816Z,87.37
2022-11-12T14:50:58.736Z,87.00
2022-11-12T14:53:29.751Z,87.74
2022-11-12T14:56:02.177Z,89.85
2022-11-12T14:58:30.279Z,88.81
2022-11-12T15:00:58.043Z,86.18
2022-11-12T15:03:32.836Z,85.81
2022-11-12T15:06:10.246Z,87.02
2022-11-12T15:08:39.848Z,87.33
2022-11-12T15:11:23.055Z,87.36
2022-11-12T15:13:53.619Z,86.78
2022-11-12T15:16:24.286Z,89.88
2022-11-12T15:19:06.831Z,87.95
2022-11-12T15:21:35.266Z,88.86
2022-11-12T15:24:07.954Z,88.35
2022-11-12T15:26:38.493Z,88.38
2022-11-12T15:29:16.102Z,90.54
2022-11-12T15:31:46.357Z,89.56
2022-11-12T15:34:27.187Z,87.22
2022-11-12T15:36:55.383Z,87.34
2022-11-12T15:39:24.575Z,88.31
2022-11-12T15:42:00.181Z,88.25
2022-11-12T15:44:32.318Z,88.80
2022-11-12T15:47:00.645Z,88.65
2022-11-12T15:49:28.353Z,89.09
2022-11-12T15:51:56.010Z,88.52
2022-11-12T15:54:23.602Z,88.40
2022-11-12T15:56:51.619Z,88.50
2022-11-12T15:59:20.779Z,87.79
2022-11-12T16:01:48.427Z,89.39
2022-11-12T16:04:15.984Z,89.50
2022-11-12T16:06:43.590Z,87.51
2022-11-12T16:09:11.165Z,89.03
2022-11-12T16:11:39.017Z,90.97
2022-11-12T16:14:12.026Z,89.73
2022-11-12T16:16:40.968Z,89.25
2022-11-12T16:19:16.198Z,89.37
2022-11-12T16:21:43.787Z,89.78
2022-11-12T16:24:11.514Z,90.03
2022-11-12T16:26:39.309Z,88.37
2022-11-12T16:29:12.915Z,87.86
2022-11-12T16:31:44.408Z,89.45
2022-11-12T16:34:12.369Z,91.52
2022-11-12T16:36:42.024Z,91.19
2022-11-12T16:39:14.155Z,91.00
2022-11-12T16:41:42.025Z,91.29
2022-11-12T16:44:09.664Z,91.38
2022-11-12T16:46:40.332Z,90.67
2022-11-12T16:49:12.817Z,89.89
2022-11-12T16:51:40.468Z,89.19
2022-11-12T16:54:09.307Z,87.92
2022-11-12T16:56:37.589Z,88.37
2022-11-12T16:59:05.565Z,89.90
2022-11-12T17:01:34.350Z,88.93
2022-11-12T17:04:01.975Z,90.21
2022-11-12T17:06:36.581Z,90.24
2022-11-12T17:09:05.398Z,91.61
2022-11-12T17:11:33.379Z,91.98
2022-11-12T17:14:01.277Z,91.61
2022-11-12T17:16:29.521Z,89.80
2022-11-12T17:18:58.801Z,90.62
2022-11-12T17:21:26.475Z,90.17
2022-11-12T17:23:55.976Z,89.74
2022-11-12T17:26:23.761Z,89.16
2022-11-12T17:28:55.699Z,89.53
2022-11-12T17:31:27.946Z,90.18
2022-11-12T17:33:55.537Z,90.30
2022-11-12T17:36:25.405Z,89.90
2022-11-12T17:38:57.573Z,91.72
2022-11-12T17:41:25.922Z,90.24
2022-11-12T17:43:55.297Z,91.65
2022-11-12T17:46:22.920Z,90.52
2022-11-12T17:48:50.650Z,92.24
2022-11-12T17:51:20.608Z,90.20
2022-11-12T17:53:49.036Z,90.16
2022-11-12T17:56:19.902Z,90.82
2022-11-12T17:58:48.428Z,91.10
2022-11-12T18:01:18.602Z,91.67
2022-11-12T18:03:50.347Z,91.36
2022-11-12T18:06:19.989Z,92.03
2022-11-12T18:08:47.745Z,92.14
2022-11-12T18:11:16.552Z,93.30
2022-11-12T18:13:45.651Z,93.07
2022-11-12T18:16:19.297Z,94.38
2022-11-12T18:18:47.230Z,94.02
2022-11-12T18:21:15.482Z,92.32
2022-11-12T18:23:45.233Z,93.93
2022-11-12T18:26:15.098Z,93.25
2022-11-12T18:28:43.044Z,91.75
2022-11-12T18:31:13.853Z,90.27
2022-11-12T18:33:41.857Z,90.02
2022-11-12T18:36:12.160Z,90.34
2022-11-12T18:38:39.723Z,92.23
2022-11-12T18:41:08.989Z,91.19
2022-11-12T18:43:37.181Z,90.55
2022-11-12T18:46:06.226Z,90.76
2022-11-12T18:48:37.482Z,91.30
2022-11-12T18:51:07.293Z,91.72
2022-11-12T18:53:35.484Z,92.51
2022-11-12T18:56:05.018Z,92.13
2022-11-12T18:58:35.300Z,92.44
2022-11-12T19:01:04.868Z,93.03
2022-11-12T19:03:32.491Z,93.14
2022-11-12T19:06:02.508Z,91.82
2022-11-12T19:08:30.113Z,92.02
2022-11-12T19:10:58.604Z,92.41
2022-11-12T19:13:26.835Z,92.63
2022-11-12T19:15:55.083Z,94.46
2022-11-12T19:18:22.948Z,94.64
2022-11-12T19:20:50.606Z,93.48
2022-11-12T19:23:19.556Z,92.86
2022-11-12T19:25:47.115Z,93.10
2022-11-12T19:28:14.653Z,92.85
2022-11-12T19:30:42.219Z,92.85
2022-11-12T19:33:09.794Z,93.29
2022-11-12T19:35:40.212Z,92.39
2022-11-12T19:38:08.017Z,93.67
2022-11-12T19:40:37.220Z,95.04
2022-11-12T19:43:04.920Z,95.13
2022-11-12T19:45:32.473Z,94.46
2022-11-12T19:48:00.054Z,93.92
2022-11-12T19:50:27.910Z,93.95
2022-11-12T19:52:55.805Z,93.01
2022-11-12T19:55:25.642Z,94.04
2022-11-12T19:57:55.042Z,92.56
2022-11-12T20:00:23.053Z,92.39
2022-11-12T20:02:51.055Z,91.63
2022-11-12T20:05:18.982Z,91.95
2022-11-12T20:07:49.454Z,91.23
2022-11-12T20:10:18.225Z,92.23
2022-11-12T20:12:46.594Z,92.49
2022-11-12T20:15:15.736Z,90.22
2022-11-12T20:17:43.428Z,90.73
2022-11-12T20:20:12.001Z,88.85
2022-11-12T20:22:39.662Z,90.50
2022-11-12T20:25:07.755Z,90.42
2022-11-12T20:27:35.600Z,90.59
2022-11-12T20:30:03.478Z,91.30
2022-11-12T20:32:32.654Z,89.51
2022-11-12T20:35:00.433Z,90.66
2022-11-12T20:37:28.116Z,90.47
2022-11-12T20:39:55.881Z,91.02
2022-11-12T20:42:23.545Z,92.84
2022-11-12T20:44:51.241Z,93.08
2022-11-12T20:47:19.071Z,91.98
2022-11-12T20:49:48.446Z,90.82
2022-11-12T20:52:16.172Z,92.18
2022-11-12T20:54:44.184Z,94.00
2022-11-12T20:57:11.973Z,94.51
2022-11-12T20:59:41.190Z,93.86
2022-11-12T21:02:10.568Z,91.97
2022-11-12T21:04:38.701Z,93.17
2022-11-12T21:07:07.809Z,91.77
2022-11-12T21:09:36.700Z,89.88
2022-11-12T21:12:04.875Z,92.08
2022-11-12T21:14:32.644Z,92.18
2022-11-12T21:17:00.314Z,91.78
2022-11-12T21:19:28.026Z,92.77
2022-11-12T21:21:55.733Z,91.16
2022-11-12T21:24:24.826Z,91.61
2022-11-12T21:26:52.468Z,92.17
2022-11-12T21:29:20.380Z,91.97
2022-11-12T21:31:48.148Z,91.99
2022-11-12T21:34:15.834Z,91.59
2022-11-12T21:36:43.377Z,90.80
2022-11-12T21:39:11.953Z,92.31
2022-11-12T21:41:40.912Z,91.96
2022-11-12T21:44:08.738Z,90.46
2022-11-12T21:46:37.514Z,91.06
2022-11-12T21:49:05.461Z,91.25
2022-11-12T21:51:34.690Z,90.99
2022-11-12T21:54:04.264Z,93.28
2022-11-12T21:56:33.338Z,93.45
2022-11-12T21:59:03.965Z,92.20
2022-11-12T22:01:33.459Z,92.42
2022-11-12T22:04:01.463Z,93.28
2022-11-12T22:06:30.798Z,92.55
2022-11-12T22:08:59.163Z,93.54
2022-11-12T22:11:28.036Z,93.08
2022-11-12T22:13:55.875Z,93.48
2022-11-12T22:16:26.420Z,94.28
2022-11-12T22:18:55.775Z,92.62
2022-11-12T22:21:24.909Z,92.48
2022-11-12T22:23:52.987Z,92.61
2022-11-12T22:26:22.737Z,94.16
2022-11-12T22:28:50.424Z,94.23
2022-11-12T22:31:20.081Z,92.84
2022-11-12T22:33:49.353Z,91.88
2022-11-12T22:36:20.288Z,93.43
2022-11-12T22:38:49.260Z,92.11
2022-11-12T22:41:18.640Z,92.42
2022-11-12T22:43:48.514Z,92.57
2022-11-12T22:46:18.408Z,93.16
2022-11-12T22:48:46.236Z,93.06
2022-11-12T22:51:17.710Z,92.58
2022-11-12T22:53:45.627Z,93.98
2022-11-12T22:56:15.043Z,92.32
2022-11-12T22:58:44.142Z,92.30
2022-11-12T23:01:19.272Z,92.36
2022-11-12T23:03:46.921Z,92.61
2022-11-12T23:06:17.331Z,93.37
2022-11-12T23:08:45.552Z,92.66
2022-11-12T23:11:15.293Z,91.05
2022-11-12T23:13:43.276Z,92.10
2022-11-12T23:16:13.460Z,91.53
2022-11-12T23:18:42.059Z,92.00
2022-11-12T23:21:11.923Z,91.77
2022-11-12T23:23:40.871Z,91.21
2022-11-12T23:26:11.539Z,91.18
2022-11-12T23:28:40.361Z,92.18
2022-11-12T23:31:15.895Z,90.82
2022-11-12T23:33:45.692Z,92.94
2022-11-12T23:36:14.001Z,92.31
2022-11-12T23:38:43.381Z,92.54
2022-11-12T23:41:12.641Z,93.46
2022-11-12T23:43:40.631Z,92.70
2022-11-12T23:46:08.301Z,92.38
2022-11-12T23:48:37.061Z,93.05
2022-11-12T23:51:06.856Z,93.20
2022-11-12T23:53:35.665Z,93.17
2022-11-12T23:56:05.936Z,93.04
2022-11-12T23:58:33.884Z,93.00
